Time;durP1;ratioP1;P1;durP2;ratioP2;P2;SDS_P1;SDS_P2;PMS_P1;PMS_P2;Temp;Humidity;BMP_temperature;BMP_pressure;BME280_temperature;BME280_humidity;BME280_pressure;Samples;Min_cycle;Max_cycle;Signal;HPM_P1;HPM_P2
2022/12/28 00:01:41;;;;;;;26.77;7.60;;;;;;;;;;5060779;28;20052;-78
2022/12/28 00:04:07;;;;;;;30.08;7.45;;;;;;;;;;5078806;28;20021;-79
2022/12/28 00:06:33;;;;;;;27.02;7.03;;;;;;;;;;5078599;28;20028;-79
2022/12/28 00:08:59;;;;;;;20.15;6.70;;;;;;;;;;5078979;28;20024;-79
2022/12/28 00:11:26;;;;;;;18.85;6.60;;;;;;;;;;5078063;28;20031;-78
2022/12/28 00:13:52;;;;;;;19.20;6.43;;;;;;;;;;5078907;28;20455;-78
2022/12/28 00:16:26;;;;;;;21.42;5.72;;;;;;;;;;5077344;28;20536;-79
2022/12/28 00:18:53;;;;;;;20.13;5.85;;;;;;;;;;5077469;28;20048;-78
2022/12/28 00:21:19;;;;;;;20.45;5.78;;;;;;;;;;5077555;28;20028;-78
2022/12/28 00:23:47;;;;;;;26.60;5.68;;;;;;;;;;5077699;28;20031;-79
2022/12/28 00:26:13;;;;;;;23.42;5.30;;;;;;;;;;5077380;28;20473;-78
2022/12/28 00:28:39;;;;;;;23.33;5.63;;;;;;;;;;5079074;28;20120;-78
2022/12/28 00:31:06;;;;;;;18.52;5.20;;;;;;;;;;5088105;28;20012;-79
2022/12/28 00:33:32;;;;;;;18.05;5.28;;;;;;;;;;5098084;28;20016;-79
2022/12/28 00:35:59;;;;;;;16.75;4.32;;;;;;;;;;5079199;28;20473;-79
2022/12/28 00:38:25;;;;;;;21.65;4.55;;;;;;;;;;5077311;28;20029;-77
2022/12/28 00:40:51;;;;;;;21.75;5.05;;;;;;;;;;5077119;28;20021;-78
2022/12/28 00:43:17;;;;;;;15.65;4.55;;;;;;;;;;5076915;28;20572;-78
2022/12/28 00:45:44;;;;;;;15.10;3.70;;;;;;;;;;5058684;28;20037;-77
2022/12/28 00:48:10;;;;;;;16.90;4.25;;;;;;;;;;5076675;28;20017;-77
2022/12/28 00:50:36;;;;;;;16.33;4.20;;;;;;;;;;5078654;28;20067;-79
2022/12/28 00:53:02;;;;;;;17.08;3.78;;;;;;;;;;5079864;28;20028;-78
2022/12/28 00:55:28;;;;;;;18.60;3.53;;;;;;;;;;5078436;28;20030;-79
2022/12/28 00:57:54;;;;;;;16.52;3.50;;;;;;;;;;5063090;28;20531;-78
2022/12/28 01:00:20;;;;;;;15.32;3.45;;;;;;;;;;5082175;28;20373;-79
2022/12/28 01:02:46;;;;;;;19.92;4.22;;;;;;;;;;5077431;28;20122;-78
2022/12/28 01:05:12;;;;;;;16.65;3.13;;;;;;;;;;5077818;28;20221;-78
2022/12/28 01:07:38;;;;;;;16.85;3.20;;;;;;;;;;5078391;28;20024;-78
2022/12/28 01:10:04;;;;;;;18.52;3.08;;;;;;;;;;5077891;28;20045;-79
2022/12/28 01:12:30;;;;;;;12.25;3.60;;;;;;;;;;5059939;28;20088;-78
2022/12/28 01:14:56;;;;;;;15.60;2.90;;;;;;;;;;5080806;28;20044;-79
2022/12/28 01:17:21;;;;;;;13.80;3.30;;;;;;;;;;5079313;28;20029;-79
2022/12/28 01:19:47;;;;;;;16.67;3.40;;;;;;;;;;5080152;28;20058;-78
2022/12/28 01:22:13;;;;;;;13.68;2.60;;;;;;;;;;5068006;28;20020;-79
2022/12/28 01:24:39;;;;;;;20.35;3.22;;;;;;;;;;5091124;28;20025;-78
2022/12/28 01:27:05;;;;;;;14.88;2.70;;;;;;;;;;5089571;28;20062;-78
2022/12/28 01:29:31;;;;;;;15.05;3.25;;;;;;;;;;5091970;28;20062;-77
2022/12/28 01:31:57;;;;;;;14.95;2.90;;;;;;;;;;5075455;28;20142;-77
2022/12/28 01:34:23;;;;;;;15.10;3.00;;;;;;;;;;5089283;28;20025;-78
2022/12/28 01:36:49;;;;;;;19.55;2.80;;;;;;;;;;5089008;28;20051;-78
2022/12/28 01:39:15;;;;;;;14.25;2.80;;;;;;;;;;5075073;28;20027;-78
2022/12/28 01:41:41;;;;;;;10.18;2.58;;;;;;;;;;5079608;28;20039;-78
2022/12/28 01:44:09;;;;;;;14.05;2.88;;;;;;;;;;5087038;28;20521;-77
2022/12/28 01:46:40;;;;;;;13.45;2.50;;;;;;;;;;5086440;28;20032;-78
2022/12/28 01:49:25;;;;;;;13.98;3.40;;;;;;;;;;5065361;28;20035;-78
2022/12/28 01:51:51;;;;;;;;;;;;;;;;;;5087835;28;20016;-77
2022/12/28 01:54:18;;;;;;;19.52;2.83;;;;;;;;;;5080690;28;19911;-78
2022/12/28 01:56:44;;;;;;;10.35;2.58;;;;;;;;;;5078921;28;20021;-79
2022/12/28 01:59:10;;;;;;;10.43;2.58;;;;;;;;;;5082857;28;20028;-77
2022/12/28 02:01:36;;;;;;;15.30;2.78;;;;;;;;;;5086240;28;20074;-78
2022/12/28 02:04:03;;;;;;;14.70;2.60;;;;;;;;;;5064492;28;20028;-78
2022/12/28 02:06:29;;;;;;;18.70;3.45;;;;;;;;;;5077695;28;20025;-78
2022/12/28 02:09:02;;;;;;;11.00;2.80;;;;;;;;;;5084627;28;20025;-79
2022/12/28 02:11:28;;;;;;;9.18;2.65;;;;;;;;;;5085572;28;20028;-79
2022/12/28 02:13:54;;;;;;;13.63;3.38;;;;;;;;;;5078234;28;20024;-79
2022/12/28 02:16:20;;;;;;;11.60;2.80;;;;;;;;;;5075861;28;20070;-78
2022/12/28 02:18:46;;;;;;;17.40;2.63;;;;;;;;;;5078223;28;20028;-79
2022/12/28 02:21:24;;;;;;;13.43;2.78;;;;;;;;;;5078657;28;20052;-79
2022/12/28 02:24:02;;;;;;;13.13;2.63;;;;;;;;;;5079807;28;20050;-77
2022/12/28 02:26:47;;;;;;;13.40;2.83;;;;;;;;;;5087654;28;20012;-78
2022/12/28 02:29:13;;;;;;;17.58;3.10;;;;;;;;;;5098717;28;20077;-78
2022/12/28 02:31:45;;;;;;;16.42;3.38;;;;;;;;;;5087910;28;20020;-78
2022/12/28 02:34:16;;;;;;;16.20;2.88;;;;;;;;;;5079597;28;20026;-78
2022/12/28 02:36:46;;;;;;;9.90;2.67;;;;;;;;;;5089960;28;20028;-78
2022/12/28 02:39:15;;;;;;;15.73;2.72;;;;;;;;;;5085462;28;20035;-78
2022/12/28 02:41:41;;;;;;;15.35;2.78;;;;;;;;;;5066022;28;20017;-78
2022/12/28 02:44:07;;;;;;;17.95;3.63;;;;;;;;;;5073422;28;20025;-77
2022/12/28 02:52:23;;;;;;;14.18;2.92;;;;;;;;;;5089459;28;20067;-77
2022/12/28 02:58:08;;;;;;;20.23;3.72;;;;;;;;;;5078710;28;20062;-78
2022/12/28 03:00:42;;;;;;;13.13;2.85;;;;;;;;;;5069509;28;20028;-79
2022/12/28 03:03:18;;;;;;;17.70;3.40;;;;;;;;;;5080106;28;20028;-79
2022/12/28 03:09:14;;;;;;;11.68;3.20;;;;;;;;;;5084461;28;20115;-78
2022/12/28 03:11:47;;;;;;;13.75;3.30;;;;;;;;;;5061835;28;20033;-78
2022/12/28 03:14:23;;;;;;;16.20;3.53;;;;;;;;;;5086406;28;20494;-78
2022/12/28 03:31:04;;;;;;;12.27;3.13;;;;;;;;;;5093888;28;20062;-78
2022/12/28 03:33:30;;;;;;;17.67;3.25;;;;;;;;;;5094578;28;20020;-78
2022/12/28 03:36:08;;;;;;;26.88;4.15;;;;;;;;;;5091596;28;20024;-77
2022/12/28 03:38:53;;;;;;;13.98;3.22;;;;;;;;;;5087447;28;20032;-77
2022/12/28 03:41:23;;;;;;;21.50;4.18;;;;;;;;;;5074924;28;20028;-77
2022/12/28 03:43:52;;;;;;;13.73;3.30;;;;;;;;;;5094788;28;20073;-77
2022/12/28 03:46:20;;;;;;;16.38;3.58;;;;;;;;;;5095495;28;20031;-77
2022/12/28 03:48:47;;;;;;;19.67;2.95;;;;;;;;;;5094421;28;20477;-77
2022/12/28 03:51:14;;;;;;;14.07;3.45;;;;;;;;;;5094119;28;20039;-79
2022/12/28 03:53:41;;;;;;;11.38;3.00;;;;;;;;;;5094742;28;20024;-77
2022/12/28 03:56:12;;;;;;;18.10;3.65;;;;;;;;;;5093561;28;20083;-76
2022/12/28 03:58:38;;;;;;;16.73;3.75;;;;;;;;;;5094411;28;20437;-77
2022/12/28 04:01:04;;;;;;;13.70;3.13;;;;;;;;;;5093454;28;20088;-76
2022/12/28 04:03:30;;;;;;;20.85;3.58;;;;;;;;;;5080033;28;20020;-75
2022/12/28 04:05:56;;;;;;;12.25;3.47;;;;;;;;;;5055742;28;20025;-76
2022/12/28 04:08:22;;;;;;;23.33;3.63;;;;;;;;;;5073745;28;20029;-76
2022/12/28 04:10:48;;;;;;;12.85;3.13;;;;;;;;;;5074279;28;20396;-76
2022/12/28 04:13:14;;;;;;;18.60;3.88;;;;;;;;;;5074396;28;20111;-76
2022/12/28 04:15:40;;;;;;;12.60;2.90;;;;;;;;;;5074393;28;20032;-77
2022/12/28 04:18:06;;;;;;;14.35;3.38;;;;;;;;;;5074638;28;20058;-76
2022/12/28 04:20:32;;;;;;;15.40;3.38;;;;;;;;;;5074426;28;20225;-76
2022/12/28 04:22:58;;;;;;;13.15;3.35;;;;;;;;;;5074580;28;20025;-76
2022/12/28 04:25:24;;;;;;;17.30;3.38;;;;;;;;;;5073914;28;20029;-76
2022/12/28 04:27:50;;;;;;;18.55;3.38;;;;;;;;;;5074877;28;20031;-76
2022/12/28 04:30:16;;;;;;;12.88;3.28;;;;;;;;;;5056822;28;20067;-76
2022/12/28 04:32:42;;;;;;;19.05;3.45;;;;;;;;;;5074741;28;20128;-77
2022/12/28 04:35:08;;;;;;;18.10;3.38;;;;;;;;;;5075482;28;20120;-75
2022/12/28 04:37:37;;;;;;;16.30;3.78;;;;;;;;;;5077538;28;20033;-77
2022/12/28 04:40:03;;;;;;;14.27;3.05;;;;;;;;;;5073054;28;20035;-75
2022/12/28 04:42:31;;;;;;;13.45;3.25;;;;;;;;;;5097660;28;20036;-75
2022/12/28 04:44:57;;;;;;;13.88;3.00;;;;;;;;;;5073931;28;20109;-77
2022/12/28 04:47:23;;;;;;;14.93;3.67;;;;;;;;;;5074458;28;20076;-76
2022/12/28 04:49:49;;;;;;;10.82;2.90;;;;;;;;;;5073466;28;20074;-76
2022/12/28 04:52:15;;;;;;;16.75;4.28;;;;;;;;;;5073406;28;20021;-77
2022/12/28 04:54:41;;;;;;;13.30;2.97;;;;;;;;;;5073730;28;20029;-75
2022/12/28 04:57:07;;;;;;;9.15;2.67;;;;;;;;;;5054827;28;20032;-76
2022/12/28 04:59:33;;;;;;;11.88;2.95;;;;;;;;;;5073063;28;20122;-76
2022/12/28 05:01:58;;;;;;;20.42;3.47;;;;;;;;;;5054647;28;20039;-75
2022/12/28 05:04:24;;;;;;;16.33;3.42;;;;;;;;;;5073115;28;20108;-75
2022/12/28 05:06:50;;;;;;;13.57;3.30;;;;;;;;;;5073472;28;20056;-75
2022/12/28 05:09:18;;;;;;;15.23;3.85;;;;;;;;;;5073231;28;20016;-75
2022/12/28 05:11:44;;;;;;;13.43;3.50;;;;;;;;;;5073991;28;20020;-77
2022/12/28 05:14:10;;;;;;;15.75;3.67;;;;;;;;;;5073981;28;20499;-77
2022/12/28 05:16:36;;;;;;;16.70;3.75;;;;;;;;;;5073164;28;20048;-76
2022/12/28 05:19:02;;;;;;;23.63;3.78;;;;;;;;;;5055275;28;20039;-76
2022/12/28 05:21:28;;;;;;;18.60;3.88;;;;;;;;;;5074769;28;20024;-78
2022/12/28 05:23:54;;;;;;;16.30;3.72;;;;;;;;;;5075559;28;20088;-77
2022/12/28 05:26:21;;;;;;;12.23;3.58;;;;;;;;;;5057931;28;20053;-76
2022/12/28 05:28:47;;;;;;;13.50;3.50;;;;;;;;;;5076717;28;20028;-74
2022/12/28 05:31:14;;;;;;;14.02;3.75;;;;;;;;;;5073875;28;20063;-78
2022/12/28 05:33:41;;;;;;;13.27;3.55;;;;;;;;;;5073325;28;20075;-77
2022/12/28 05:36:15;;;;;;;14.38;4.00;;;;;;;;;;5054371;28;20051;-76
2022/12/28 05:38:41;;;;;;;13.00;3.55;;;;;;;;;;5073540;28;20032;-76
2022/12/28 05:41:13;;;;;;;14.63;3.35;;;;;;;;;;5073263;28;20051;-79
2022/12/28 05:43:39;;;;;;;8.63;3.35;;;;;;;;;;5055622;28;20024;-77
2022/12/28 05:46:09;;;;;;;10.65;4.20;;;;;;;;;;5066885;28;20071;-77
2022/12/28 05:48:36;;;;;;;11.88;3.40;;;;;;;;;;5076180;28;20024;-76
2022/12/28 05:51:03;;;;;;;11.77;3.78;;;;;;;;;;5087913;28;20060;-77
2022/12/28 05:53:30;;;;;;;12.80;3.90;;;;;;;;;;5062413;28;20306;-77
2022/12/28 05:56:03;;;;;;;16.45;4.53;;;;;;;;;;5074342;28;20572;-74
2022/12/28 05:58:29;;;;;;;7.70;3.38;;;;;;;;;;5060404;28;20604;-76
2022/12/28 06:01:02;;;;;;;11.55;3.45;;;;;;;;;;5077854;28;20032;-76
2022/12/28 06:03:28;;;;;;;11.98;3.17;;;;;;;;;;5079826;28;20020;-76
2022/12/28 06:05:54;;;;;;;9.93;2.90;;;;;;;;;;5080109;28;20430;-77
2022/12/28 06:08:20;;;;;;;7.60;3.08;;;;;;;;;;5078294;28;20497;-77
2022/12/28 06:10:46;;;;;;;13.23;3.13;;;;;;;;;;5060461;28;20036;-76
2022/12/28 06:13:12;;;;;;;11.70;3.47;;;;;;;;;;5077035;28;20024;-76
2022/12/28 06:15:38;;;;;;;9.52;3.00;;;;;;;;;;5082671;28;20032;-77
2022/12/28 06:18:04;;;;;;;7.70;2.90;;;;;;;;;;5077447;28;20068;-79
2022/12/28 06:20:30;;;;;;;12.18;3.70;;;;;;;;;;5077236;28;20020;-75
2022/12/28 06:22:57;;;;;;;13.50;3.75;;;;;;;;;;5077281;28;20484;-76
2022/12/28 06:25:23;;;;;;;9.80;2.92;;;;;;;;;;5077614;28;20465;-75
2022/12/28 06:27:49;;;;;;;8.93;3.58;;;;;;;;;;5077379;28;20040;-76
2022/12/28 06:30:15;;;;;;;5.75;3.35;;;;;;;;;;5077420;28;20032;-75
2022/12/28 06:32:41;;;;;;;9.80;3.72;;;;;;;;;;5077806;28;20032;-77
2022/12/28 06:35:07;;;;;;;11.73;3.85;;;;;;;;;;5077795;28;20043;-75
2022/12/28 06:37:33;;;;;;;8.23;3.20;;;;;;;;;;5069521;28;20025;-75
2022/12/28 06:39:58;;;;;;;6.78;3.30;;;;;;;;;;5079875;28;20032;-74
2022/12/28 06:42:24;;;;;;;9.60;3.42;;;;;;;;;;5067324;28;20115;-74
2022/12/28 06:44:50;;;;;;;9.70;3.45;;;;;;;;;;5075555;28;20425;-75
2022/12/28 06:47:16;;;;;;;5.13;3.10;;;;;;;;;;5073868;28;20025;-75
2022/12/28 06:49:42;;;;;;;10.30;3.20;;;;;;;;;;5083086;28;20082;-75
2022/12/28 06:52:08;;;;;;;5.03;2.95;;;;;;;;;;5084068;28;20564;-79
2022/12/28 06:54:34;;;;;;;6.32;3.17;;;;;;;;;;5088862;28;20028;-76
2022/12/28 06:57:00;;;;;;;9.90;3.97;;;;;;;;;;5081280;28;20044;-76
2022/12/28 06:59:26;;;;;;;9.00;3.83;;;;;;;;;;5067508;28;20093;-76
2022/12/28 07:01:52;;;;;;;7.97;3.20;;;;;;;;;;5065978;28;20032;-77
2022/12/28 07:04:18;;;;;;;9.55;3.60;;;;;;;;;;5067152;28;20462;-76
2022/12/28 07:06:44;;;;;;;7.93;3.40;;;;;;;;;;5065754;28;20024;-77
2022/12/28 07:09:12;;;;;;;5.57;3.80;;;;;;;;;;5068512;28;20516;-77
2022/12/28 07:11:38;;;;;;;6.22;3.53;;;;;;;;;;5054228;28;20028;-77
2022/12/28 07:14:04;;;;;;;7.35;3.40;;;;;;;;;;5067364;28;20031;-77
2022/12/28 07:16:30;;;;;;;5.47;3.50;;;;;;;;;;5079702;28;20021;-78
2022/12/28 07:18:58;;;;;;;6.80;3.70;;;;;;;;;;5080823;28;20420;-74
2022/12/28 07:21:31;;;;;;;8.20;3.58;;;;;;;;;;5078987;28;20024;-77
2022/12/28 07:23:58;;;;;;;11.67;4.23;;;;;;;;;;5061992;28;20071;-76
2022/12/28 07:26:25;;;;;;;6.60;3.67;;;;;;;;;;5058829;28;20248;-77
2022/12/28 07:28:52;;;;;;;11.30;4.32;;;;;;;;;;5060850;28;20029;-78
2022/12/28 07:31:20;;;;;;;6.72;3.55;;;;;;;;;;5058521;28;20028;-76
2022/12/28 07:33:46;;;;;;;7.22;3.83;;;;;;;;;;5055445;28;20028;-75
2022/12/28 07:36:14;;;;;;;8.18;3.92;;;;;;;;;;5069442;28;20127;-76
2022/12/28 07:38:40;;;;;;;6.82;3.63;;;;;;;;;;5055492;28;20028;-77
2022/12/28 07:41:11;;;;;;;8.43;3.90;;;;;;;;;;5055789;28;20022;-76
2022/12/28 07:43:37;;;;;;;12.85;3.90;;;;;;;;;;5061540;28;20029;-77
2022/12/28 07:46:05;;;;;;;6.65;3.50;;;;;;;;;;5056075;28;20071;-76
2022/12/28 07:48:31;;;;;;;7.15;3.55;;;;;;;;;;5057340;28;20029;-76
2022/12/28 07:50:57;;;;;;;8.10;3.58;;;;;;;;;;5064042;28;20031;-77
2022/12/28 07:53:23;;;;;;;6.53;3.38;;;;;;;;;;5057268;28;20108;-76
2022/12/28 07:55:56;;;;;;;7.25;3.63;;;;;;;;;;5069144;28;20044;-75
2022/12/28 07:58:22;;;;;;;8.18;3.60;;;;;;;;;;5090554;28;20064;-75
2022/12/28 08:00:49;;;;;;;7.32;3.40;;;;;;;;;;5075753;28;20065;-75
2022/12/28 08:03:15;;;;;;;6.75;3.65;;;;;;;;;;5086936;28;20024;-75
2022/12/28 08:05:41;;;;;;;5.07;4.00;;;;;;;;;;5060162;28;20033;-76
2022/12/28 08:08:07;;;;;;;4.28;3.05;;;;;;;;;;5064437;28;20043;-75
2022/12/28 08:10:33;;;;;;;6.82;3.58;;;;;;;;;;5070718;28;20068;-76
2022/12/28 08:13:02;;;;;;;3.97;3.58;;;;;;;;;;5071175;28;20052;-76
2022/12/28 08:15:28;;;;;;;5.18;3.42;;;;;;;;;;5055856;28;20124;-76
2022/12/28 08:17:54;;;;;;;6.45;3.97;;;;;;;;;;5054951;28;20025;-77
2022/12/28 08:20:21;;;;;;;7.07;3.70;;;;;;;;;;5058368;28;20035;-77
2022/12/28 08:22:47;;;;;;;4.65;3.75;;;;;;;;;;5074731;28;20016;-76
2022/12/28 08:25:13;;;;;;;4.03;3.60;;;;;;;;;;5057067;28;20796;-77
2022/12/28 08:27:38;;;;;;;5.38;4.03;;;;;;;;;;5076131;28;20028;-78
2022/12/28 08:30:05;;;;;;;4.97;3.88;;;;;;;;;;5076522;28;20028;-77
2022/12/28 08:32:31;;;;;;;4.85;3.83;;;;;;;;;;5079916;28;20028;-77
2022/12/28 08:34:57;;;;;;;5.88;4.28;;;;;;;;;;5083153;28;20058;-75
2022/12/28 08:37:23;;;;;;;8.25;4.30;;;;;;;;;;5074318;28;20389;-76
2022/12/28 08:39:49;;;;;;;5.65;4.53;;;;;;;;;;5074594;28;20017;-76
2022/12/28 08:42:14;;;;;;;6.30;4.50;;;;;;;;;;5075252;28;20025;-79
2022/12/28 08:44:40;;;;;;;6.28;4.57;;;;;;;;;;5055644;28;20027;-76
2022/12/28 08:47:06;;;;;;;6.95;4.60;;;;;;;;;;5094811;28;20008;-75
2022/12/28 08:49:32;;;;;;;6.55;5.20;;;;;;;;;;5089907;28;20033;-76
2022/12/28 08:51:58;;;;;;;7.68;5.10;;;;;;;;;;5074443;28;20039;-77
2022/12/28 08:54:24;;;;;;;6.05;5.10;;;;;;;;;;5074541;28;20059;-75
2022/12/28 08:56:52;;;;;;;8.10;5.78;;;;;;;;;;5073464;28;20031;-75
2022/12/28 08:59:18;;;;;;;7.47;6.10;;;;;;;;;;5073884;28;20036;-77
2022/12/28 09:01:45;;;;;;;7.65;6.47;;;;;;;;;;5075914;28;20024;-76
2022/12/28 09:04:13;;;;;;;10.10;8.38;;;;;;;;;;5075048;28;20017;-76
2022/12/28 09:06:39;;;;;;;8.45;6.32;;;;;;;;;;5057848;28;20031;-76
2022/12/28 09:09:06;;;;;;;7.65;6.35;;;;;;;;;;5076139;28;20469;-77
2022/12/28 09:11:33;;;;;;;10.27;7.00;;;;;;;;;;5075848;28;20432;-76
2022/12/28 09:13:59;;;;;;;7.38;6.32;;;;;;;;;;5077623;28;20024;-76
2022/12/28 09:16:26;;;;;;;7.15;6.40;;;;;;;;;;5078164;28;20107;-75
2022/12/28 09:18:53;;;;;;;10.35;7.60;;;;;;;;;;5059083;28;20025;-77
2022/12/28 09:21:21;;;;;;;8.00;7.20;;;;;;;;;;5077298;28;20203;-78
2022/12/28 09:23:47;;;;;;;10.48;7.57;;;;;;;;;;5075973;28;20021;-76
2022/12/28 09:26:18;;;;;;;11.93;7.80;;;;;;;;;;5057759;28;20029;-77
2022/12/28 09:28:51;;;;;;;9.98;8.27;;;;;;;;;;5078912;28;20020;-78
2022/12/28 09:31:18;;;;;;;9.43;7.90;;;;;;;;;;5059766;28;20032;-80
2022/12/28 09:33:59;;;;;;;9.63;8.50;;;;;;;;;;5061334;28;20429;-78
2022/12/28 09:36:35;;;;;;;8.63;7.72;;;;;;;;;;5080670;28;20020;-78
2022/12/28 09:39:05;;;;;;;13.05;8.73;;;;;;;;;;5077127;28;20078;-76
2022/12/28 09:41:32;;;;;;;13.40;8.65;;;;;;;;;;5075502;28;20385;-77
2022/12/28 09:44:01;;;;;;;13.65;8.57;;;;;;;;;;5075597;28;20025;-77
2022/12/28 09:46:28;;;;;;;10.60;8.05;;;;;;;;;;5075595;28;20074;-76
2022/12/28 09:48:56;;;;;;;9.85;8.20;;;;;;;;;;5076533;28;20024;-76
2022/12/28 09:51:25;;;;;;;11.15;8.40;;;;;;;;;;5076027;28;20043;-77
2022/12/28 09:53:51;;;;;;;10.43;8.07;;;;;;;;;;5080155;28;20029;-80
2022/12/28 09:56:20;;;;;;;9.75;7.47;;;;;;;;;;5058035;28;20480;-76
2022/12/28 09:58:48;;;;;;;11.32;8.40;;;;;;;;;;5078942;28;20020;-78
2022/12/28 10:01:15;;;;;;;9.20;7.50;;;;;;;;;;5081495;28;20017;-74
2022/12/28 10:03:43;;;;;;;13.18;6.95;;;;;;;;;;5073999;28;20025;-80
2022/12/28 10:06:14;;;;;;;9.50;7.10;;;;;;;;;;5082439;28;20017;-75
2022/12/28 10:08:51;;;;;;;9.85;6.95;;;;;;;;;;5079708;28;20040;-76
2022/12/28 10:11:18;;;;;;;9.35;6.65;;;;;;;;;;5078037;28;20040;-76
2022/12/28 10:13:45;;;;;;;7.78;6.78;;;;;;;;;;5057379;28;20031;-75
2022/12/28 10:16:15;;;;;;;10.88;7.13;;;;;;;;;;5056541;28;20110;-75
2022/12/28 10:18:41;;;;;;;6.32;5.65;;;;;;;;;;5075293;28;20075;-76
2022/12/28 10:21:07;;;;;;;10.05;6.60;;;;;;;;;;5076020;28;20024;-75
2022/12/28 10:23:35;;;;;;;8.80;6.72;;;;;;;;;;5074233;28;20024;-76
2022/12/28 10:26:02;;;;;;;7.85;6.43;;;;;;;;;;5073633;28;20468;-75
2022/12/28 10:28:32;;;;;;;8.02;6.50;;;;;;;;;;5073566;28;20036;-76
2022/12/28 10:31:06;;;;;;;11.10;6.85;;;;;;;;;;5054359;28;20021;-76
2022/12/28 10:33:32;;;;;;;13.07;6.35;;;;;;;;;;5072763;28;20024;-75
2022/12/28 10:35:59;;;;;;;8.85;7.03;;;;;;;;;;5072798;28;20163;-76
2022/12/28 10:38:32;;;;;;;7.70;6.90;;;;;;;;;;5077137;28;20035;-76
2022/12/28 10:41:02;;;;;;;7.13;6.43;;;;;;;;;;5079161;28;20491;-75
2022/12/28 10:43:30;;;;;;;23.45;14.20;;;;;;;;;;5095813;28;20017;-76
2022/12/28 10:45:57;;;;;;;8.05;6.30;;;;;;;;;;5096034;28;20042;-76
2022/12/28 10:48:25;;;;;;;7.65;6.85;;;;;;;;;;5096649;28;20036;-76
2022/12/28 10:50:54;;;;;;;7.90;7.10;;;;;;;;;;5095957;28;20051;-76
2022/12/28 10:53:50;;;;;;;11.88;8.35;;;;;;;;;;5085977;28;20093;-75
2022/12/28 10:56:20;;;;;;;14.13;9.68;;;;;;;;;;5054589;28;20041;-76
2022/12/28 10:58:47;;;;;;;12.60;8.32;;;;;;;;;;5074176;28;20034;-75
2022/12/28 11:01:13;;;;;;;12.90;8.30;;;;;;;;;;5095919;28;20028;-75
2022/12/28 11:03:39;;;;;;;11.30;7.45;;;;;;;;;;5091884;28;20039;-76
2022/12/28 11:06:08;;;;;;;8.43;7.07;;;;;;;;;;5056632;28;20078;-76
2022/12/28 11:08:35;;;;;;;9.85;7.68;;;;;;;;;;5075383;28;20044;-76
2022/12/28 11:11:01;;;;;;;9.88;7.60;;;;;;;;;;5074961;28;20545;-75
2022/12/28 11:13:27;;;;;;;9.30;7.05;;;;;;;;;;5075484;28;20029;-76
2022/12/28 11:15:53;;;;;;;9.93;7.80;;;;;;;;;;5075304;28;20102;-76
2022/12/28 11:18:20;;;;;;;9.10;7.57;;;;;;;;;;5075789;28;20023;-76
2022/12/28 11:20:50;;;;;;;8.07;6.63;;;;;;;;;;5057236;28;20051;-76
2022/12/28 11:23:30;;;;;;;9.68;6.63;;;;;;;;;;5075711;28;20019;-75
2022/12/28 11:25:56;;;;;;;9.13;6.53;;;;;;;;;;5074732;28;20024;-76
2022/12/28 11:28:23;;;;;;;7.35;5.60;;;;;;;;;;5074621;28;20024;-76
2022/12/28 11:30:49;;;;;;;7.75;6.07;;;;;;;;;;5075118;28;20025;-75
2022/12/28 11:33:26;;;;;;;8.18;6.10;;;;;;;;;;5074687;28;20089;-76
2022/12/28 11:35:54;;;;;;;6.75;5.50;;;;;;;;;;5074814;28;20024;-75
2022/12/28 11:38:37;;;;;;;6.15;5.30;;;;;;;;;;5057135;28;20028;-75
2022/12/28 11:41:03;;;;;;;6.10;5.28;;;;;;;;;;5056677;28;20077;-76
2022/12/28 11:43:29;;;;;;;7.50;5.25;;;;;;;;;;5074923;28;20021;-74
2022/12/28 11:45:58;;;;;;;6.18;5.05;;;;;;;;;;5056551;28;20120;-75
2022/12/28 11:48:42;;;;;;;6.43;4.90;;;;;;;;;;5074492;28;20024;-76
2022/12/28 11:51:14;;;;;;;4.73;4.20;;;;;;;;;;5057161;28;20028;-76
2022/12/28 11:53:43;;;;;;;12.13;8.13;;;;;;;;;;5076427;28;20269;-74
2022/12/28 11:56:13;;;;;;;4.95;4.47;;;;;;;;;;5077168;28;20028;-76
2022/12/28 11:58:39;;;;;;;4.82;4.13;;;;;;;;;;5091426;28;20029;-76
2022/12/28 12:01:08;;;;;;;6.28;4.20;;;;;;;;;;5096022;28;20076;-75
2022/12/28 12:04:00;;;;;;;6.30;4.10;;;;;;;;;;5074903;28;20155;-76
2022/12/28 12:06:41;;;;;;;13.20;6.75;;;;;;;;;;5072732;28;20048;-76
2022/12/28 12:09:23;;;;;;;11.27;5.80;;;;;;;;;;5083450;28;20037;-76
2022/12/28 12:11:50;;;;;;;17.65;7.68;;;;;;;;;;5083646;28;20070;-75
2022/12/28 12:14:18;;;;;;;8.35;4.40;;;;;;;;;;5087061;28;20381;-76
2022/12/28 12:16:49;;;;;;;8.45;4.75;;;;;;;;;;5067987;28;20028;-77
2022/12/28 12:19:29;;;;;;;4.55;3.83;;;;;;;;;;5078010;28;20520;-77
2022/12/28 12:22:06;;;;;;;5.63;4.53;;;;;;;;;;5080391;28;20570;-76
2022/12/28 12:24:36;;;;;;;6.47;4.20;;;;;;;;;;5076961;28;20021;-75
2022/12/28 12:27:02;;;;;;;5.22;4.40;;;;;;;;;;5076614;28;20025;-77
2022/12/28 12:29:36;;;;;;;4.35;3.95;;;;;;;;;;5075835;28;20371;-77
2022/12/28 12:32:04;;;;;;;4.30;3.90;;;;;;;;;;5076779;28;20028;-75
2022/12/28 12:34:40;;;;;;;6.43;4.10;;;;;;;;;;5058134;28;20032;-75
2022/12/28 12:37:24;;;;;;;5.13;4.13;;;;;;;;;;5058243;28;20111;-75
2022/12/28 12:40:06;;;;;;;5.55;3.80;;;;;;;;;;5077721;28;20427;-76
2022/12/28 12:42:35;;;;;;;5.88;4.25;;;;;;;;;;5079824;28;20099;-77
2022/12/28 12:45:05;;;;;;;5.00;3.97;;;;;;;;;;5076703;28;20020;-75
2022/12/28 12:47:52;;;;;;;3.90;3.50;;;;;;;;;;5085030;28;20032;-76
2022/12/28 12:50:29;;;;;;;4.43;3.67;;;;;;;;;;5076960;28;20028;-76
2022/12/28 12:53:06;;;;;;;4.78;3.97;;;;;;;;;;5075768;28;20025;-76
2022/12/28 12:55:51;;;;;;;5.28;4.38;;;;;;;;;;5075851;28;20024;-76
2022/12/28 12:58:21;;;;;;;4.78;4.10;;;;;;;;;;5096342;28;20036;-76
2022/12/28 13:00:50;;;;;;;6.22;4.47;;;;;;;;;;5079447;28;20056;-77
2022/12/28 13:03:18;;;;;;;4.55;3.90;;;;;;;;;;5073838;28;20024;-76
2022/12/28 13:05:49;;;;;;;6.32;4.18;;;;;;;;;;5073510;28;20540;-75
2022/12/28 13:08:19;;;;;;;5.03;4.20;;;;;;;;;;5055911;28;20042;-77
2022/12/28 13:10:45;;;;;;;5.82;4.07;;;;;;;;;;5073034;28;20044;-76
2022/12/28 13:13:18;;;;;;;4.80;3.95;;;;;;;;;;5055208;28;20442;-75
2022/12/28 13:15:44;;;;;;;5.85;4.40;;;;;;;;;;5072579;28;20029;-75
2022/12/28 13:18:18;;;;;;;4.82;4.10;;;;;;;;;;5076395;28;20067;-75
2022/12/28 13:20:54;;;;;;;6.55;4.65;;;;;;;;;;5072975;28;20070;-76
2022/12/28 13:23:21;;;;;;;6.93;4.65;;;;;;;;;;5073343;28;20048;-76
2022/12/28 13:25:49;;;;;;;8.65;4.13;;;;;;;;;;5072603;28;20380;-75
2022/12/28 13:28:22;;;;;;;8.00;5.60;;;;;;;;;;5073946;28;20025;-75
2022/12/28 13:30:56;;;;;;;5.90;4.45;;;;;;;;;;5073140;28;20036;-74
2022/12/28 13:33:22;;;;;;;5.05;4.55;;;;;;;;;;5074611;28;20697;-75
2022/12/28 13:35:48;;;;;;;9.98;5.38;;;;;;;;;;5073080;28;20028;-75
2022/12/28 13:38:15;;;;;;;7.18;4.75;;;;;;;;;;5073579;28;20489;-74
2022/12/28 13:40:49;;;;;;;7.55;5.40;;;;;;;;;;5073718;28;20017;-74
2022/12/28 13:43:36;;;;;;;5.78;5.18;;;;;;;;;;5073858;28;20029;-75
2022/12/28 13:46:06;;;;;;;7.10;5.38;;;;;;;;;;5073297;28;20111;-75
2022/12/28 13:48:33;;;;;;;7.57;5.13;;;;;;;;;;5076136;28;20032;-77
2022/12/28 13:51:00;;;;;;;8.88;5.80;;;;;;;;;;5077421;28;20495;-74
2022/12/28 13:53:27;;;;;;;6.10;5.50;;;;;;;;;;5075089;28;20025;-75
2022/12/28 13:55:58;;;;;;;6.82;5.22;;;;;;;;;;5086541;28;20564;-74
2022/12/28 13:58:26;;;;;;;9.82;6.55;;;;;;;;;;5073556;28;20060;-74
2022/12/28 14:00:53;;;;;;;7.65;5.70;;;;;;;;;;5097229;28;20013;-74
2022/12/28 14:03:20;;;;;;;6.75;5.53;;;;;;;;;;5088569;28;20024;-74
2022/12/28 14:05:48;;;;;;;8.55;5.85;;;;;;;;;;5071657;28;20012;-74
2022/12/28 14:08:15;;;;;;;7.95;6.00;;;;;;;;;;5064628;28;20033;-75
2022/12/28 14:10:41;;;;;;;9.23;5.90;;;;;;;;;;5046897;28;20558;-75
2022/12/28 14:13:09;;;;;;;5.55;4.97;;;;;;;;;;5068524;28;20037;-75
2022/12/28 14:15:35;;;;;;;7.50;5.60;;;;;;;;;;5058187;28;20039;-74
2022/12/28 14:18:02;;;;;;;8.38;5.55;;;;;;;;;;5058331;28;20040;-75
2022/12/28 14:20:28;;;;;;;6.35;5.35;;;;;;;;;;5047108;28;20021;-75
2022/12/28 14:22:54;;;;;;;10.80;5.40;;;;;;;;;;5070745;28;20024;-75
2022/12/28 14:25:21;;;;;;;7.85;4.80;;;;;;;;;;5049465;28;20478;-76
2022/12/28 14:27:57;;;;;;;8.05;5.30;;;;;;;;;;5067616;28;20334;-75
2022/12/28 14:30:31;;;;;;;5.95;5.00;;;;;;;;;;5067178;28;20033;-75
2022/12/28 14:33:00;;;;;;;8.38;5.80;;;;;;;;;;5069795;28;20056;-75
2022/12/28 14:35:27;;;;;;;8.98;5.32;;;;;;;;;;5066775;28;20978;-76
2022/12/28 14:37:55;;;;;;;11.85;8.70;;;;;;;;;;5069522;28;20508;-74
2022/12/28 14:40:31;;;;;;;6.57;5.50;;;;;;;;;;5072517;28;20101;-75
2022/12/28 14:43:00;;;;;;;6.35;4.80;;;;;;;;;;5070840;28;20405;-75
2022/12/28 14:45:39;;;;;;;5.68;4.53;;;;;;;;;;5068947;28;20111;-76
2022/12/28 14:48:21;;;;;;;5.07;4.40;;;;;;;;;;5067308;28;20020;-75
2022/12/28 14:51:04;;;;;;;4.57;3.85;;;;;;;;;;5070844;28;20359;-74
2022/12/28 14:53:30;;;;;;;7.43;5.10;;;;;;;;;;5086599;28;20089;-75
2022/12/28 14:56:01;;;;;;;4.68;4.15;;;;;;;;;;5081689;28;20094;-73
2022/12/28 14:58:29;;;;;;;6.85;4.10;;;;;;;;;;5072863;28;20044;-73
2022/12/28 15:01:00;;;;;;;6.63;4.15;;;;;;;;;;5086155;28;20024;-75
2022/12/28 15:03:27;;;;;;;4.55;4.00;;;;;;;;;;5076096;28;20036;-76
2022/12/28 15:05:55;;;;;;;4.22;3.80;;;;;;;;;;5075079;28;20025;-78
2022/12/28 15:08:26;;;;;;;5.10;4.43;;;;;;;;;;5090263;28;20054;-76
2022/12/28 15:10:56;;;;;;;5.45;4.60;;;;;;;;;;5072317;28;20029;-74
2022/12/28 15:13:24;;;;;;;6.22;4.70;;;;;;;;;;5079232;28;20078;-75